createdAt,value
2023-10-19T00:00:41.775Z,27.27
2023-10-19T00:03:09.257Z,29.80
2023-10-19T00:05:36.895Z,25.40
2023-10-19T00:08:07.632Z,25.55
2023-10-19T00:10:36.429Z,27.65
2023-10-19T00:13:07.265Z,26.98
2023-10-19T00:15:49.217Z,27.58
2023-10-19T00:18:16.756Z,29.02
2023-10-19T00:20:55.456Z,29.92
2023-10-19T00:23:29.885Z,29.35
2023-10-19T00:26:00.980Z,30.25
2023-10-19T00:28:28.448Z,30.02
2023-10-19T00:31:01.737Z,31.48
2023-10-19T00:33:29.846Z,31.23
2023-10-19T00:36:06.169Z,36.15
2023-10-19T00:38:36.167Z,35.53
2023-10-19T00:41:12.904Z,32.63
2023-10-19T00:43:46.496Z,35.03
2023-10-19T00:46:24.298Z,34.53
2023-10-19T00:48:59.437Z,33.28
2023-10-19T00:51:34.258Z,35.75
2023-10-19T00:54:09.068Z,35.45
2023-10-19T00:56:36.601Z,34.65
2023-10-19T00:59:14.222Z,34.72
2023-10-19T01:01:46.388Z,32.10
2023-10-19T01:04:15.955Z,36.88
2023-10-19T01:07:00.120Z,34.97
2023-10-19T01:09:28.672Z,33.50
2023-10-19T01:11:55.693Z,35.50
2023-10-19T01:14:24.085Z,32.15
2023-10-19T01:16:51.374Z,36.20
2023-10-19T01:19:19.701Z,38.63
2023-10-19T01:21:52.386Z,40.33
2023-10-19T01:24:42.930Z,36.22
2023-10-19T01:27:10.214Z,38.97
2023-10-19T01:29:38.928Z,36.80
2023-10-19T01:32:16.471Z,38.15
2023-10-19T01:34:44.512Z,38.25
2023-10-19T01:37:13.691Z,41.35
2023-10-19T01:39:43.614Z,40.72
2023-10-19T01:42:10.478Z,39.80
2023-10-19T01:44:37.500Z,42.78
2023-10-19T01:47:07.095Z,39.22
2023-10-19T01:49:34.292Z,39.20
2023-10-19T01:52:01.929Z,41.35
2023-10-19T01:54:28.865Z,38.17
2023-10-19T01:56:57.912Z,39.97
2023-10-19T01:59:28.485Z,35.50
2023-10-19T02:01:56.339Z,43.33
2023-10-19T02:04:23.437Z,41.40
2023-10-19T02:06:52.932Z,38.00
2023-10-19T02:09:24.312Z,37.55
2023-10-19T02:11:59.773Z,41.53
2023-10-19T02:14:32.595Z,36.45
2023-10-19T02:17:01.576Z,37.42
2023-10-19T02:19:30.221Z,41.55
2023-10-19T02:21:59.737Z,39.30
2023-10-19T02:24:27.456Z,39.17
2023-10-19T02:26:56.780Z,41.83
2023-10-19T02:29:24.413Z,40.63
2023-10-19T02:31:51.346Z,42.08
2023-10-19T02:34:18.320Z,41.40
2023-10-19T02:36:46.892Z,42.25
2023-10-19T02:39:15.727Z,38.00
2023-10-19T02:41:45.173Z,44.30
2023-10-19T02:44:23.845Z,45.17
2023-10-19T02:46:59.997Z,44.03
2023-10-19T02:49:30.690Z,46.80
2023-10-19T02:52:04.275Z,46.35
2023-10-19T02:54:34.466Z,44.30
2023-10-19T02:57:01.882Z,49.45
2023-10-19T02:59:30.106Z,50.15
2023-10-19T03:02:13.518Z,45.10
2023-10-19T03:04:42.470Z,46.17
2023-10-19T03:07:09.409Z,46.83
2023-10-19T03:09:39.962Z,43.95
2023-10-19T03:12:11.449Z,41.78
2023-10-19T03:14:38.737Z,41.55
2023-10-19T03:17:09.402Z,42.33
2023-10-19T03:19:36.464Z,44.65
2023-10-19T03:22:07.007Z,49.08
2023-10-19T03:24:37.610Z,47.90
2023-10-19T03:27:19.415Z,41.35
2023-10-19T03:29:55.430Z,46.80
2023-10-19T03:32:27.258Z,42.25
2023-10-19T03:34:57.490Z,42.72
2023-10-19T03:37:26.917Z,48.53
2023-10-19T03:39:57.787Z,40.95
2023-10-19T03:42:33.609Z,43.42
2023-10-19T03:45:03.838Z,40.10
2023-10-19T03:47:36.987Z,40.40
2023-10-19T03:50:08.318Z,43.88
2023-10-19T03:52:39.488Z,37.10
2023-10-19T03:55:12.726Z,36.33
2023-10-19T03:57:47.973Z,34.28
2023-10-19T04:00:20.079Z,33.22
2023-10-19T04:02:47.953Z,31.85
2023-10-19T04:05:23.115Z,38.17
2023-10-19T04:07:58.266Z,35.58
2023-10-19T04:13:02.220Z,31.70
2023-10-19T04:15:36.907Z,29.45
2023-10-19T04:18:10.002Z,27.35
2023-10-19T04:20:49.558Z,26.63
2023-10-19T04:23:17.531Z,25.38
2023-10-19T04:25:47.340Z,25.73
2023-10-19T04:28:15.012Z,27.05
2023-10-19T04:30:42.014Z,27.55
2023-10-19T04:33:11.724Z,26.80
2023-10-19T04:35:39.075Z,29.40
2023-10-19T04:38:09.384Z,24.83
2023-10-19T04:40:37.200Z,29.17
2023-10-19T04:43:06.667Z,26.30
2023-10-19T04:45:33.789Z,30.63
2023-10-19T04:48:01.000Z,27.40
2023-10-19T04:50:28.279Z,25.60
2023-10-19T04:52:55.138Z,28.75
2023-10-19T04:55:22.132Z,25.60
2023-10-19T04:57:50.222Z,22.83
2023-10-19T05:00:18.591Z,22.40
2023-10-19T05:02:45.545Z,22.55
2023-10-19T05:05:12.680Z,21.58
2023-10-19T05:07:39.644Z,19.40
2023-10-19T05:10:07.121Z,18.73
2023-10-19T05:12:34.340Z,19.15
2023-10-19T05:15:01.383Z,18.88
2023-10-19T05:17:28.731Z,18.15
2023-10-19T05:19:57.007Z,19.23
2023-10-19T05:22:26.564Z,18.20
2023-10-19T05:24:53.819Z,16.23
2023-10-19T05:27:21.533Z,18.65
2023-10-19T05:29:48.719Z,21.00
2023-10-19T05:32:15.673Z,21.83
2023-10-19T05:34:43.152Z,22.52
2023-10-19T05:37:11.743Z,19.98
2023-10-19T05:39:38.642Z,25.58
2023-10-19T05:42:05.816Z,22.30
2023-10-19T05:44:33.392Z,20.67
2023-10-19T05:47:01.765Z,22.23
2023-10-19T05:49:29.835Z,20.13
2023-10-19T05:51:57.193Z,17.75
2023-10-19T05:54:24.972Z,24.38
2023-10-19T05:56:54.762Z,16.95
2023-10-19T05:59:21.967Z,18.05
2023-10-19T06:01:49.902Z,17.17
2023-10-19T06:04:20.866Z,20.45
2023-10-19T06:06:49.428Z,18.30
2023-10-19T06:09:16.956Z,17.80
2023-10-19T06:11:44.290Z,17.33
2023-10-19T06:14:11.792Z,16.58
2023-10-19T06:16:38.813Z,15.10
2023-10-19T06:19:06.881Z,17.20
2023-10-19T06:21:34.968Z,16.27
2023-10-19T06:24:02.296Z,16.05
2023-10-19T06:26:29.999Z,17.52
2023-10-19T06:29:03.820Z,18.08
2023-10-19T06:31:31.184Z,16.98
2023-10-19T06:33:59.096Z,17.35
2023-10-19T06:36:26.570Z,15.63
2023-10-19T06:38:55.462Z,17.95
2023-10-19T06:41:31.772Z,18.13
2023-10-19T06:44:04.434Z,18.73
2023-10-19T06:46:32.649Z,18.35
2023-10-19T06:49:22.269Z,18.92
2023-10-19T06:51:49.068Z,18.88
2023-10-19T06:54:15.903Z,19.20
2023-10-19T06:56:43.209Z,12.25
2023-10-19T06:59:12.899Z,13.60
2023-10-19T07:01:39.749Z,13.23
2023-10-19T07:04:09.341Z,13.13
2023-10-19T07:06:36.509Z,11.98
2023-10-19T07:09:06.544Z,11.93
2023-10-19T07:11:36.837Z,13.88
2023-10-19T07:14:08.335Z,11.32
2023-10-19T07:16:36.305Z,14.20
2023-10-19T07:19:03.590Z,13.65
2023-10-19T07:21:33.022Z,17.08
2023-10-19T07:24:02.736Z,12.27
2023-10-19T07:26:32.768Z,14.45
2023-10-19T07:29:02.690Z,13.13
2023-10-19T07:31:29.736Z,16.42
2023-10-19T07:34:00.074Z,20.70
2023-10-19T07:36:27.024Z,32.85
2023-10-19T07:38:53.977Z,28.60
2023-10-19T07:41:21.680Z,21.38
2023-10-19T07:43:48.768Z,20.27
2023-10-19T07:46:15.950Z,16.20
2023-10-19T07:48:42.928Z,14.82
2023-10-19T07:51:12.595Z,14.48
2023-10-19T07:53:39.509Z,15.15
2023-10-19T07:56:06.623Z,17.80
2023-10-19T07:58:35.086Z,21.60
2023-10-19T08:01:02.583Z,18.10
2023-10-19T08:03:29.455Z,17.00
2023-10-19T08:05:56.202Z,17.20
2023-10-19T08:08:25.855Z,15.30
2023-10-19T08:10:52.784Z,19.52
2023-10-19T08:13:19.609Z,18.75
2023-10-19T08:15:46.454Z,19.90
2023-10-19T08:18:15.914Z,18.10
2023-10-19T08:20:43.313Z,20.27
2023-10-19T08:23:10.369Z,23.88
2023-10-19T08:25:55.711Z,23.75
2023-10-19T08:28:23.989Z,21.58
2023-10-19T08:31:17.182Z,20.70
2023-10-19T08:33:44.014Z,20.85
2023-10-19T08:36:19.415Z,20.85
2023-10-19T08:38:47.553Z,20.23
2023-10-19T08:41:17.745Z,22.75
2023-10-19T08:43:44.919Z,20.58
2023-10-19T08:46:13.529Z,21.48
2023-10-19T08:48:40.698Z,25.95
2023-10-19T08:51:11.099Z,20.98
2023-10-19T08:53:42.080Z,19.13
2023-10-19T08:56:10.836Z,23.17
2023-10-19T08:58:37.877Z,21.23
2023-10-19T09:01:07.919Z,23.67
2023-10-19T09:03:36.010Z,24.05
2023-10-19T09:06:06.472Z,24.45
2023-10-19T09:08:42.132Z,24.65
2023-10-19T09:11:09.782Z,24.92
2023-10-19T09:13:48.601Z,23.15
2023-10-19T09:16:20.862Z,23.02
2023-10-19T09:18:48.433Z,29.65
2023-10-19T09:21:26.650Z,25.70
2023-10-19T09:23:55.790Z,23.35
2023-10-19T09:26:24.011Z,29.00
2023-10-19T09:28:52.731Z,26.02
2023-10-19T09:31:21.709Z,31.52
2023-10-19T09:33:50.266Z,33.25
2023-10-19T09:36:17.439Z,27.23
2023-10-19T09:38:54.561Z,26.70
2023-10-19T09:41:29.692Z,34.53
2023-10-19T09:44:05.931Z,26.58
2023-10-19T09:46:34.505Z,27.45
2023-10-19T09:49:01.942Z,27.40
2023-10-19T09:51:29.785Z,26.02
2023-10-19T09:54:06.757Z,33.13
2023-10-19T09:56:39.575Z,34.65
2023-10-19T09:59:38.668Z,32.22
2023-10-19T10:02:16.592Z,32.50
2023-10-19T10:04:46.759Z,31.38
2023-10-19T10:07:16.474Z,30.00
2023-10-19T10:09:46.374Z,32.83
2023-10-19T10:12:25.381Z,28.33
2023-10-19T10:15:09.494Z,28.70
2023-10-19T10:17:41.224Z,27.75
2023-10-19T10:20:14.759Z,30.52
2023-10-19T10:22:45.467Z,30.52
2023-10-19T10:25:41.766Z,32.17
2023-10-19T10:28:15.501Z,27.70
2023-10-19T10:31:38.209Z,28.70
2023-10-19T10:34:06.193Z,31.10
2023-10-19T10:37:04.826Z,31.38
2023-10-19T10:39:32.490Z,27.70
2023-10-19T10:42:00.454Z,29.60
2023-10-19T10:44:45.688Z,30.27
2023-10-19T10:47:17.843Z,27.73
2023-10-19T10:50:11.535Z,28.48
2023-10-19T10:52:38.616Z,28.13
2023-10-19T10:55:12.242Z,26.63
2023-10-19T10:57:43.853Z,30.83
2023-10-19T11:00:16.608Z,27.10
2023-10-19T11:02:47.062Z,27.25
2023-10-19T11:05:16.862Z,25.08
2023-10-19T11:08:22.163Z,42.58
2023-10-19T11:10:49.869Z,24.77
2023-10-19T11:13:18.661Z,28.33
2023-10-19T11:15:59.819Z,24.25
2023-10-19T11:18:44.518Z,25.98
2023-10-19T11:21:13.536Z,27.38
2023-10-19T11:23:51.030Z,29.25
2023-10-19T11:26:20.202Z,24.17
2023-10-19T11:28:52.859Z,28.20
2023-10-19T11:31:23.145Z,28.70
2023-10-19T11:33:54.461Z,28.00
2023-10-19T11:36:23.208Z,29.58
2023-10-19T11:38:52.662Z,25.65
2023-10-19T11:41:19.587Z,26.08
2023-10-19T11:43:47.868Z,26.38
2023-10-19T11:46:19.444Z,29.23
2023-10-19T11:48:46.615Z,34.97
2023-10-19T11:51:14.973Z,28.58
2023-10-19T11:53:43.853Z,25.13
2023-10-19T11:56:14.346Z,27.05
2023-10-19T11:58:43.348Z,21.63
2023-10-19T12:01:14.651Z,23.25
2023-10-19T12:03:42.478Z,24.77
2023-10-19T12:06:13.323Z,24.02
2023-10-19T12:08:43.330Z,22.92
2023-10-19T12:11:20.332Z,23.05
2023-10-19T12:13:48.410Z,19.83
2023-10-19T12:16:21.016Z,21.38
2023-10-19T12:18:51.481Z,19.92
2023-10-19T12:21:19.653Z,21.13
2023-10-19T12:23:55.657Z,21.80
2023-10-19T12:26:22.805Z,20.83
2023-10-19T12:28:50.885Z,22.42
2023-10-19T12:31:20.209Z,20.60
2023-10-19T12:33:47.592Z,21.67
2023-10-19T12:36:30.011Z,21.88
2023-10-19T12:38:57.022Z,28.65
2023-10-19T12:41:25.738Z,23.40
2023-10-19T12:43:53.929Z,21.52
2023-10-19T12:46:23.271Z,19.58
2023-10-19T12:48:50.207Z,21.10
2023-10-19T12:51:24.076Z,20.60
2023-10-19T12:53:52.516Z,23.58
2023-10-19T12:56:20.408Z,22.58
2023-10-19T12:58:49.644Z,22.58
2023-10-19T13:01:20.763Z,24.75
2023-10-19T13:03:48.548Z,28.35
2023-10-19T13:06:16.360Z,27.20
2023-10-19T13:08:43.336Z,25.08
2023-10-19T13:11:19.025Z,22.90
2023-10-19T13:13:47.218Z,25.58
2023-10-19T13:16:14.807Z,24.55
2023-10-19T13:18:42.153Z,26.95
2023-10-19T13:21:17.891Z,23.73
2023-10-19T13:23:45.525Z,26.45
2023-10-19T13:26:18.844Z,24.35
2023-10-19T13:28:46.866Z,23.70
2023-10-19T13:31:19.675Z,24.25
2023-10-19T13:33:47.300Z,24.13
2023-10-19T13:36:14.589Z,24.88
2023-10-19T13:38:42.170Z,27.67
2023-10-19T13:41:10.960Z,24.40
2023-10-19T13:43:43.637Z,27.88
2023-10-19T13:46:11.487Z,28.13
2023-10-19T13:48:40.900Z,26.80
2023-10-19T13:51:14.556Z,26.33
2023-10-19T13:53:42.872Z,27.33
2023-10-19T13:56:13.347Z,27.95
2023-10-19T13:58:40.408Z,27.17
2023-10-19T14:01:11.865Z,27.10
2023-10-19T14:03:39.951Z,28.65
2023-10-19T14:06:13.274Z,27.65
2023-10-19T14:08:40.333Z,29.02
2023-10-19T14:11:07.886Z,33.28
2023-10-19T14:13:36.750Z,30.80
2023-10-19T14:16:10.806Z,29.88
2023-10-19T14:18:38.178Z,20.38
2023-10-19T14:21:20.170Z,29.70
2023-10-19T14:23:49.120Z,31.48
2023-10-19T14:26:16.110Z,28.95
2023-10-19T14:28:43.143Z,32.47
2023-10-19T14:31:13.133Z,30.98
2023-10-19T14:33:40.540Z,33.38
2023-10-19T14:36:08.776Z,33.33
2023-10-19T14:38:38.875Z,31.33
2023-10-19T14:41:06.234Z,34.15
2023-10-19T14:43:34.062Z,34.22
2023-10-19T14:46:02.641Z,33.58
2023-10-19T14:48:30.275Z,34.35
2023-10-19T14:51:00.178Z,39.72
2023-10-19T14:53:27.132Z,36.53
2023-10-19T14:55:57.960Z,39.67
2023-10-19T14:58:26.769Z,39.05
2023-10-19T15:00:56.697Z,39.65
2023-10-19T15:03:25.254Z,49.70
2023-10-19T15:05:53.808Z,39.28
2023-10-19T15:08:20.917Z,43.67
2023-10-19T15:10:47.730Z,38.63
2023-10-19T15:13:14.763Z,40.92
2023-10-19T15:15:41.544Z,41.17
2023-10-19T15:18:09.086Z,43.83
2023-10-19T15:20:36.552Z,45.00
2023-10-19T15:23:03.461Z,46.20
2023-10-19T15:25:30.449Z,49.97
2023-10-19T15:27:57.495Z,55.45
2023-10-19T15:30:25.797Z,51.78
2023-10-19T15:33:00.056Z,48.95
2023-10-19T15:35:28.902Z,36.63
2023-10-19T15:37:56.582Z,49.70
2023-10-19T15:40:25.239Z,45.38
2023-10-19T15:42:56.309Z,40.90
2023-10-19T15:45:24.284Z,52.58
2023-10-19T15:47:55.183Z,50.08
2023-10-19T15:50:25.280Z,51.58
2023-10-19T15:52:53.369Z,47.95
2023-10-19T15:55:23.639Z,50.20
2023-10-19T15:57:51.609Z,47.45
2023-10-19T16:00:19.536Z,52.65
2023-10-19T16:02:46.559Z,48.60
2023-10-19T16:05:14.775Z,48.00
2023-10-19T16:07:41.956Z,52.13
2023-10-19T16:10:14.013Z,54.20
2023-10-19T16:12:41.687Z,51.13
2023-10-19T16:15:09.408Z,53.78
2023-10-19T16:17:40.373Z,51.13
2023-10-19T16:20:08.646Z,53.45
2023-10-19T16:22:36.243Z,56.85
2023-10-19T16:25:04.514Z,50.47
2023-10-19T16:27:32.019Z,54.92
2023-10-19T16:29:58.977Z,56.03
2023-10-19T16:32:26.233Z,55.35
2023-10-19T16:34:53.442Z,59.38
2023-10-19T16:37:23.256Z,56.88
2023-10-19T16:39:50.918Z,57.53
2023-10-19T16:42:17.726Z,63.55
2023-10-19T16:44:44.930Z,59.25
2023-10-19T16:47:13.065Z,57.55
2023-10-19T16:49:40.474Z,63.45
2023-10-19T16:52:08.625Z,58.88
2023-10-19T16:54:35.734Z,63.53
2023-10-19T16:57:02.716Z,62.35
2023-10-19T16:59:30.846Z,63.35
2023-10-19T17:01:58.523Z,62.15
2023-10-19T17:04:27.137Z,61.22
2023-10-19T17:06:54.575Z,63.17
2023-10-19T17:09:22.863Z,65.60
2023-10-19T17:11:55.707Z,63.60
2023-10-19T17:14:25.187Z,66.75
2023-10-19T17:16:52.275Z,65.55
2023-10-19T17:19:19.252Z,72.82
2023-10-19T17:21:46.216Z,73.13
2023-10-19T17:24:13.056Z,75.40
2023-10-19T17:26:39.956Z,78.50
2023-10-19T17:29:07.873Z,82.30
2023-10-19T17:31:36.305Z,82.32
2023-10-19T17:34:03.739Z,81.90
2023-10-19T17:36:30.641Z,78.28
2023-10-19T17:38:57.729Z,85.97
2023-10-19T17:41:26.126Z,86.95
2023-10-19T17:43:54.201Z,90.82
2023-10-19T17:46:21.771Z,92.82
2023-10-19T17:48:48.819Z,97.68
2023-10-19T17:51:17.651Z,99.25
2023-10-19T17:53:45.315Z,93.90
2023-10-19T17:56:12.528Z,98.68
2023-10-19T17:58:39.753Z,94.88
2023-10-19T18:01:11.557Z,96.32
2023-10-19T18:03:42.906Z,104.72
2023-10-19T18:06:12.265Z,107.60
2023-10-19T18:08:39.419Z,110.50
2023-10-19T18:11:13.528Z,107.45
2023-10-19T18:13:41.579Z,89.67
2023-10-19T18:16:08.987Z,110.25
2023-10-19T18:18:36.220Z,116.72
2023-10-19T18:21:14.828Z,119.47
2023-10-19T18:23:47.752Z,117.70
2023-10-19T18:26:17.102Z,135.82
2023-10-19T18:28:45.792Z,127.72
2023-10-19T18:31:13.036Z,128.65
2023-10-19T18:33:42.064Z,129.10
2023-10-19T18:36:14.650Z,131.95
2023-10-19T18:38:42.965Z,129.55
2023-10-19T18:41:11.001Z,122.63
2023-10-19T18:43:38.137Z,136.50
2023-10-19T18:46:05.461Z,145.00
2023-10-19T18:48:32.726Z,133.95
2023-10-19T18:51:04.777Z,138.15
2023-10-19T18:53:36.106Z,132.82
2023-10-19T18:56:04.560Z,144.27
2023-10-19T18:58:31.492Z,144.38
2023-10-19T19:01:00.494Z,136.93
2023-10-19T19:03:27.924Z,141.90
2023-10-19T19:05:58.866Z,142.82
2023-10-19T19:08:30.645Z,148.57
2023-10-19T19:10:58.774Z,142.52
2023-10-19T19:13:26.456Z,135.85
2023-10-19T19:15:54.394Z,137.07
2023-10-19T19:18:21.282Z,127.90
2023-10-19T19:20:48.152Z,132.02
2023-10-19T19:23:15.841Z,129.35
2023-10-19T19:25:45.923Z,125.28
2023-10-19T19:28:12.889Z,113.10
2023-10-19T19:30:40.149Z,115.68
2023-10-19T19:33:07.439Z,121.40
2023-10-19T19:35:34.414Z,126.78
2023-10-19T19:38:01.323Z,118.95
2023-10-19T19:40:31.241Z,130.30
2023-10-19T19:42:58.514Z,117.43
2023-10-19T19:45:25.538Z,114.50
2023-10-19T19:47:53.587Z,108.00
2023-10-19T19:50:21.759Z,111.50
2023-10-19T19:52:48.893Z,116.68
2023-10-19T19:55:15.908Z,110.80
2023-10-19T19:57:43.349Z,104.47
2023-10-19T20:00:16.198Z,113.03
2023-10-19T20:02:50.099Z,106.65
2023-10-19T20:05:18.684Z,114.25
2023-10-19T20:07:48.851Z,104.18
2023-10-19T20:10:41.297Z,108.35
2023-10-19T20:13:08.362Z,113.45
2023-10-19T20:15:37.332Z,120.70
2023-10-19T20:18:04.830Z,106.20
2023-10-19T20:20:31.749Z,114.47
2023-10-19T20:22:59.481Z,119.43
2023-10-19T20:25:27.859Z,116.75
2023-10-19T20:27:55.838Z,109.28
2023-10-19T20:30:23.358Z,123.70
2023-10-19T20:32:50.455Z,118.50
2023-10-19T20:35:19.988Z,119.30
2023-10-19T20:37:47.606Z,111.20
2023-10-19T20:40:22.307Z,119.28
2023-10-19T20:42:58.498Z,97.30
2023-10-19T20:45:27.206Z,115.55
2023-10-19T20:47:57.389Z,119.57
2023-10-19T20:50:30.261Z,112.18
2023-10-19T20:53:01.926Z,108.50
2023-10-19T20:55:29.189Z,108.70
2023-10-19T20:57:56.525Z,97.47
2023-10-19T21:00:25.140Z,95.20
2023-10-19T21:02:52.402Z,93.30
2023-10-19T21:05:21.245Z,91.38
2023-10-19T21:07:49.856Z,97.07
2023-10-19T21:10:20.377Z,91.57
2023-10-19T21:12:47.813Z,104.53
2023-10-19T21:15:19.184Z,94.07
2023-10-19T21:17:49.868Z,92.20
2023-10-19T21:20:18.868Z,92.10
2023-10-19T21:22:48.382Z,95.78
2023-10-19T21:25:17.391Z,89.85
2023-10-19T21:27:45.512Z,91.78
2023-10-19T21:30:17.185Z,104.28
2023-10-19T21:32:48.739Z,97.05
2023-10-19T21:35:18.664Z,88.90
2023-10-19T21:37:45.797Z,87.90
2023-10-19T21:40:13.463Z,80.45
2023-10-19T21:42:45.464Z,85.22
2023-10-19T21:45:15.599Z,90.45
2023-10-19T21:47:43.105Z,86.38
2023-10-19T21:50:14.394Z,79.25
2023-10-19T21:52:44.343Z,78.22
2023-10-19T21:55:14.361Z,80.53
2023-10-19T21:57:41.586Z,83.70
2023-10-19T22:00:14.044Z,75.68
2023-10-19T22:02:45.833Z,73.03
2023-10-19T22:05:25.377Z,70.53
2023-10-19T22:07:53.179Z,70.07
2023-10-19T22:10:20.479Z,66.28
2023-10-19T22:12:48.821Z,72.28
2023-10-19T22:15:18.763Z,76.18
2023-10-19T22:17:48.579Z,69.57
2023-10-19T22:20:17.586Z,71.50
2023-10-19T22:22:45.024Z,71.25
2023-10-19T22:25:15.328Z,68.82
2023-10-19T22:27:42.178Z,69.00
2023-10-19T22:30:09.260Z,81.85
2023-10-19T22:32:37.041Z,72.07
2023-10-19T22:35:06.184Z,66.80
2023-10-19T22:37:33.526Z,67.88
2023-10-19T22:40:00.496Z,66.47
2023-10-19T22:42:27.972Z,68.65
2023-10-19T22:44:54.843Z,65.32
2023-10-19T22:47:21.808Z,71.65
2023-10-19T22:49:48.900Z,68.50
2023-10-19T22:52:15.817Z,62.05
2023-10-19T22:54:42.896Z,66.45
2023-10-19T22:57:13.420Z,70.85
2023-10-19T22:59:40.478Z,64.35
2023-10-19T23:02:07.268Z,65.28
2023-10-19T23:04:34.583Z,65.93
2023-10-19T23:07:02.233Z,63.38
2023-10-19T23:09:29.351Z,63.78
2023-10-19T23:12:09.551Z,63.55
2023-10-19T23:14:36.909Z,60.83
2023-10-19T23:17:08.585Z,64.90
2023-10-19T23:19:39.352Z,63.97
2023-10-19T23:22:07.114Z,59.42
2023-10-19T23:24:34.399Z,61.70
2023-10-19T23:27:01.421Z,61.97
2023-10-19T23:29:29.802Z,61.55
2023-10-19T23:31:57.689Z,64.85
2023-10-19T23:34:24.985Z,62.15
2023-10-19T23:36:53.280Z,59.50
2023-10-19T23:39:27.987Z,65.10
2023-10-19T23:41:59.033Z,52.40
2023-10-19T23:44:28.137Z,58.00
2023-10-19T23:46:55.077Z,52.20
2023-10-19T23:49:21.915Z,55.80
2023-10-19T23:51:49.300Z,57.13
2023-10-19T23:54:19.255Z,61.28
2023-10-19T23:56:46.025Z,61.55
2023-10-19T23:59:12.880Z,59.25
